createdAt,value
2023-05-19T00:01:49.236Z,14.70
2023-05-19T00:04:17.672Z,11.90
2023-05-19T00:06:46.706Z,14.73
2023-05-19T00:09:14.678Z,12.32
2023-05-19T00:11:42.901Z,11.68
2023-05-19T00:14:11.408Z,12.05
2023-05-19T00:16:42.299Z,13.45
2023-05-19T00:19:10.801Z,13.73
2023-05-19T00:21:39.324Z,12.00
2023-05-19T00:24:07.818Z,13.90
2023-05-19T00:26:35.549Z,12.70
2023-05-19T00:29:03.305Z,13.63
2023-05-19T00:31:31.743Z,13.43
2023-05-19T00:34:00.901Z,12.93
2023-05-19T00:36:28.598Z,12.80
2023-05-19T00:38:56.267Z,16.70
2023-05-19T00:41:23.958Z,13.23
2023-05-19T00:43:52.073Z,17.50
2023-05-19T00:46:19.911Z,14.13
2023-05-19T00:48:47.676Z,17.23
2023-05-19T00:51:17.305Z,12.70
2023-05-19T00:53:48.585Z,15.73
2023-05-19T00:56:17.240Z,15.30
2023-05-19T00:58:45.268Z,13.70
2023-05-19T01:01:14.589Z,12.95
2023-05-19T01:03:43.282Z,13.63
2023-05-19T01:06:12.239Z,13.13
2023-05-19T01:08:41.394Z,14.63
2023-05-19T01:11:09.273Z,16.40
2023-05-19T01:13:39.124Z,13.45
2023-05-19T01:16:13.520Z,15.25
2023-05-19T01:18:47.124Z,13.93
2023-05-19T01:21:36.620Z,15.20
2023-05-19T01:24:15.210Z,13.27
2023-05-19T01:27:06.859Z,12.40
2023-05-19T01:29:43.352Z,13.67
2023-05-19T01:32:12.968Z,14.93
2023-05-19T01:34:43.667Z,13.85
2023-05-19T01:37:11.527Z,14.65
2023-05-19T01:39:39.661Z,12.55
2023-05-19T01:42:07.983Z,20.25
2023-05-19T01:44:35.869Z,14.07
2023-05-19T01:47:03.932Z,14.63
2023-05-19T01:49:32.924Z,13.82
2023-05-19T01:52:00.556Z,14.95
2023-05-19T01:54:28.202Z,16.80
2023-05-19T01:57:01.420Z,16.23
2023-05-19T01:59:37.693Z,17.65
2023-05-19T02:02:11.165Z,17.27
2023-05-19T02:04:45.153Z,19.83
2023-05-19T02:07:18.438Z,19.13
2023-05-19T02:09:53.455Z,13.68
2023-05-19T02:12:26.534Z,20.77
2023-05-19T02:14:57.938Z,17.75
2023-05-19T02:17:29.067Z,14.07
2023-05-19T02:19:58.115Z,15.07
2023-05-19T02:22:26.178Z,15.55
2023-05-19T02:24:53.846Z,14.45
2023-05-19T02:27:21.497Z,16.35
2023-05-19T02:29:49.176Z,13.27
2023-05-19T02:32:16.977Z,20.70
2023-05-19T02:34:45.600Z,13.32
2023-05-19T02:37:15.389Z,14.57
2023-05-19T02:39:43.337Z,13.63
2023-05-19T02:42:12.047Z,15.00
2023-05-19T02:44:39.711Z,21.38
2023-05-19T02:47:07.419Z,16.77
2023-05-19T02:49:36.073Z,16.95
2023-05-19T02:52:04.065Z,16.45
2023-05-19T02:54:33.938Z,18.00
2023-05-19T02:57:02.122Z,18.27
2023-05-19T02:59:31.324Z,17.10
2023-05-19T03:02:01.176Z,17.50
2023-05-19T03:04:29.423Z,28.88
2023-05-19T03:06:57.329Z,18.67
2023-05-19T03:09:25.017Z,20.10
2023-05-19T03:11:54.018Z,19.35
2023-05-19T03:14:23.841Z,15.40
2023-05-19T03:16:51.780Z,15.15
2023-05-19T03:19:19.552Z,21.70
2023-05-19T03:21:47.511Z,21.90
2023-05-19T03:24:15.141Z,14.05
2023-05-19T03:26:43.137Z,20.38
2023-05-19T03:29:12.123Z,17.58
2023-05-19T03:31:39.788Z,15.95
2023-05-19T03:34:07.407Z,17.17
2023-05-19T03:36:39.318Z,18.40
2023-05-19T03:39:07.228Z,21.25
2023-05-19T03:41:34.863Z,19.73
2023-05-19T03:44:02.958Z,13.65
2023-05-19T03:46:31.996Z,21.83
2023-05-19T03:48:59.668Z,18.13
2023-05-19T03:51:28.668Z,12.65
2023-05-19T03:53:56.369Z,16.77
2023-05-19T03:56:26.478Z,18.42
2023-05-19T03:58:54.776Z,16.33
2023-05-19T04:01:22.483Z,19.60
2023-05-19T04:03:51.516Z,16.02
2023-05-19T04:06:20.033Z,18.67
2023-05-19T04:08:47.813Z,22.25
2023-05-19T04:11:15.540Z,16.73
2023-05-19T04:13:44.569Z,16.83
2023-05-19T04:16:12.888Z,13.88
2023-05-19T04:18:40.680Z,16.08
2023-05-19T04:21:09.700Z,22.05
2023-05-19T04:23:37.314Z,13.32
2023-05-19T04:26:06.777Z,14.25
2023-05-19T04:28:38.831Z,15.13
2023-05-19T04:31:10.614Z,17.25
2023-05-19T04:33:38.297Z,18.60
2023-05-19T04:36:08.620Z,14.60
2023-05-19T04:38:40.086Z,20.08
2023-05-19T04:41:10.933Z,22.75
2023-05-19T04:43:41.745Z,17.70
2023-05-19T04:46:12.224Z,26.38
2023-05-19T04:48:41.056Z,18.35
2023-05-19T04:51:08.774Z,23.50
2023-05-19T04:53:40.149Z,16.42
2023-05-19T04:56:08.152Z,14.90
2023-05-19T04:58:35.924Z,23.13
2023-05-19T05:01:03.895Z,20.88
2023-05-19T05:03:33.245Z,22.48
2023-05-19T05:06:01.034Z,18.92
2023-05-19T05:08:30.227Z,25.08
2023-05-19T05:10:59.821Z,15.77
2023-05-19T05:13:28.027Z,17.33
2023-05-19T05:15:56.345Z,17.67
2023-05-19T05:18:24.592Z,17.00
2023-05-19T05:20:52.681Z,22.45
2023-05-19T05:23:20.827Z,14.77
2023-05-19T05:25:49.035Z,15.82
2023-05-19T05:28:18.135Z,14.20
2023-05-19T05:30:46.420Z,17.00
2023-05-19T05:33:14.207Z,15.68
2023-05-19T05:35:42.075Z,16.33
2023-05-19T05:38:11.486Z,17.10
2023-05-19T05:40:39.317Z,22.00
2023-05-19T05:43:07.019Z,12.80
2023-05-19T05:45:36.135Z,18.95
2023-05-19T05:48:04.476Z,13.55
2023-05-19T05:50:32.776Z,12.93
2023-05-19T05:53:02.782Z,17.35
2023-05-19T05:55:31.415Z,14.57
2023-05-19T05:58:02.039Z,16.05
2023-05-19T06:00:29.918Z,14.75
2023-05-19T06:02:59.221Z,16.20
2023-05-19T06:05:27.107Z,13.82
2023-05-19T06:07:54.836Z,17.27
2023-05-19T06:10:22.767Z,19.20
2023-05-19T06:12:50.526Z,24.05
2023-05-19T06:15:18.181Z,13.88
2023-05-19T06:17:45.914Z,16.20
2023-05-19T06:20:16.211Z,15.05
2023-05-19T06:22:43.809Z,13.80
2023-05-19T06:25:11.435Z,14.77
2023-05-19T06:27:39.084Z,17.05
2023-05-19T06:30:08.642Z,14.90
2023-05-19T06:32:36.392Z,12.90
2023-05-19T06:35:04.265Z,13.25
2023-05-19T06:37:33.431Z,12.93
2023-05-19T06:40:01.340Z,13.13
2023-05-19T06:42:29.004Z,19.83
2023-05-19T06:44:56.668Z,15.18
2023-05-19T06:47:24.360Z,13.65
2023-05-19T06:49:55.155Z,14.70
2023-05-19T06:52:23.719Z,13.48
2023-05-19T06:54:52.699Z,12.95
2023-05-19T06:57:21.020Z,12.52
2023-05-19T06:59:48.698Z,12.85
2023-05-19T07:02:16.453Z,13.55
2023-05-19T07:04:44.327Z,13.80
2023-05-19T07:07:11.988Z,20.88
2023-05-19T07:09:40.090Z,12.55
2023-05-19T07:12:09.131Z,13.05
2023-05-19T07:14:38.843Z,19.65
2023-05-19T07:17:06.476Z,12.45
2023-05-19T07:19:34.118Z,13.30
2023-05-19T07:22:01.785Z,13.48
2023-05-19T07:24:30.450Z,12.98
2023-05-19T07:35:16.778Z,14.00
2023-05-19T07:37:44.468Z,13.35
2023-05-19T07:40:12.699Z,13.82
2023-05-19T07:42:40.349Z,13.60
2023-05-19T07:45:09.001Z,16.38
2023-05-19T07:47:36.677Z,13.35
2023-05-19T07:50:04.441Z,13.88
2023-05-19T07:52:33.404Z,14.25
2023-05-19T07:55:01.164Z,14.18
2023-05-19T07:57:28.816Z,15.52
2023-05-19T07:59:56.559Z,14.77
2023-05-19T08:02:24.289Z,14.00
2023-05-19T08:04:53.167Z,13.85
2023-05-19T08:07:20.935Z,13.02
2023-05-19T08:09:49.968Z,13.77
2023-05-19T08:12:17.600Z,12.95
2023-05-19T08:14:45.913Z,15.18
2023-05-19T08:17:13.545Z,12.95
2023-05-19T08:19:41.173Z,13.30
2023-05-19T08:22:08.801Z,14.75
2023-05-19T08:24:36.591Z,13.48
2023-05-19T08:27:06.758Z,13.32
2023-05-19T08:29:34.453Z,13.57
2023-05-19T08:32:02.789Z,13.38
2023-05-19T08:34:30.478Z,14.82
2023-05-19T08:36:59.706Z,14.02
2023-05-19T08:39:27.584Z,13.35
2023-05-19T08:41:55.348Z,14.00
2023-05-19T08:44:24.377Z,15.18
2023-05-19T08:46:53.961Z,13.65
2023-05-19T08:49:25.688Z,13.43
2023-05-19T08:51:58.533Z,13.80
2023-05-19T08:54:27.533Z,14.60
2023-05-19T08:56:55.553Z,12.90
2023-05-19T08:59:24.615Z,15.00
2023-05-19T09:01:52.429Z,13.65
2023-05-19T09:04:20.684Z,14.70
2023-05-19T09:06:48.524Z,14.85
2023-05-19T09:09:17.354Z,15.32
2023-05-19T09:11:47.093Z,15.57
2023-05-19T09:14:14.756Z,13.52
2023-05-19T09:16:44.036Z,14.50
2023-05-19T09:19:16.406Z,14.05
2023-05-19T09:21:45.744Z,14.90
2023-05-19T09:24:13.464Z,14.88
2023-05-19T09:26:43.067Z,15.60
2023-05-19T09:29:14.519Z,15.70
2023-05-19T09:31:49.878Z,16.20
2023-05-19T09:34:17.669Z,15.32
2023-05-19T09:36:45.620Z,15.80
2023-05-19T09:39:16.491Z,16.40
2023-05-19T09:41:44.398Z,18.17
2023-05-19T09:44:15.375Z,16.83
2023-05-19T09:46:50.593Z,19.50
2023-05-19T09:49:22.643Z,16.70
2023-05-19T09:51:52.141Z,17.67
2023-05-19T09:54:21.449Z,16.58
2023-05-19T09:56:53.073Z,15.95
2023-05-19T09:59:21.217Z,17.65
2023-05-19T10:01:50.403Z,16.92
2023-05-19T10:04:18.338Z,17.58
2023-05-19T10:06:46.176Z,17.70
2023-05-19T10:09:14.140Z,18.30
2023-05-19T10:11:42.416Z,17.00
2023-05-19T10:14:10.254Z,18.00
2023-05-19T10:16:38.989Z,17.92
2023-05-19T10:19:08.935Z,17.38
2023-05-19T10:21:36.762Z,19.50
2023-05-19T10:24:04.662Z,17.10
2023-05-19T10:26:32.655Z,17.55
2023-05-19T10:29:00.436Z,17.92
2023-05-19T10:31:28.178Z,17.55
2023-05-19T10:34:07.940Z,18.55
2023-05-19T10:36:45.903Z,16.42
2023-05-19T10:39:18.207Z,16.55
2023-05-19T10:41:54.316Z,17.27
2023-05-19T10:44:31.701Z,16.75
2023-05-19T10:46:59.443Z,15.45
2023-05-19T10:49:27.197Z,16.02
2023-05-19T10:51:57.863Z,16.50
2023-05-19T10:54:43.196Z,17.48
2023-05-19T10:57:16.272Z,17.10
2023-05-19T10:59:45.137Z,17.45
2023-05-19T11:02:39.637Z,16.40
2023-05-19T11:05:11.382Z,17.17
2023-05-19T11:07:42.407Z,17.95
2023-05-19T11:10:10.677Z,17.33
2023-05-19T11:12:42.993Z,16.42
2023-05-19T11:15:15.172Z,16.35
2023-05-19T11:20:22.550Z,15.50
2023-05-19T11:23:06.293Z,17.27
2023-05-19T11:25:47.856Z,16.75
2023-05-19T11:28:17.306Z,17.30
2023-05-19T11:30:46.443Z,18.38
2023-05-19T11:33:14.569Z,16.15
2023-05-19T11:35:43.280Z,17.08
2023-05-19T11:38:12.402Z,17.23
2023-05-19T11:40:40.454Z,16.73
2023-05-19T11:43:08.114Z,15.57
2023-05-19T11:45:36.268Z,16.55
2023-05-19T11:48:05.344Z,15.82
2023-05-19T11:50:33.275Z,17.17
2023-05-19T11:53:02.107Z,17.98
2023-05-19T11:55:31.883Z,18.63
2023-05-19T12:00:32.209Z,18.83
2023-05-19T12:03:00.249Z,18.70
2023-05-19T12:05:28.310Z,19.17
2023-05-19T12:07:56.212Z,18.85
2023-05-19T12:10:24.388Z,18.02
2023-05-19T12:12:53.374Z,18.88
2023-05-19T12:15:22.004Z,19.48
2023-05-19T12:17:57.132Z,19.00
2023-05-19T12:20:24.851Z,19.70
2023-05-19T12:22:52.910Z,17.95
2023-05-19T12:25:21.383Z,21.10
2023-05-19T12:27:49.689Z,21.35
2023-05-19T12:30:19.062Z,19.08
2023-05-19T12:32:49.127Z,19.42
2023-05-19T12:35:17.057Z,20.63
2023-05-19T12:37:44.778Z,18.73
2023-05-19T12:40:16.980Z,18.48
2023-05-19T12:45:13.276Z,18.05
2023-05-19T12:47:42.387Z,18.10
2023-05-19T12:50:11.273Z,19.40
2023-05-19T12:52:43.846Z,20.90
2023-05-19T12:55:12.108Z,18.73
2023-05-19T12:57:41.054Z,19.17
2023-05-19T13:00:11.685Z,20.40
2023-05-19T13:02:59.716Z,19.65
2023-05-19T13:05:27.741Z,20.08
2023-05-19T13:07:58.943Z,20.02
2023-05-19T13:10:28.041Z,18.70
2023-05-19T13:12:55.968Z,19.13
2023-05-19T13:15:26.142Z,18.92
2023-05-19T13:17:54.962Z,21.08
2023-05-19T13:20:26.929Z,18.60
2023-05-19T13:22:57.020Z,19.35
2023-05-19T13:25:24.732Z,19.63
2023-05-19T13:27:52.410Z,19.38
2023-05-19T13:30:20.947Z,19.83
2023-05-19T13:32:48.723Z,19.45
2023-05-19T13:35:16.559Z,18.50
2023-05-19T13:37:45.681Z,19.05
2023-05-19T13:40:15.697Z,23.60
2023-05-19T13:42:43.392Z,21.38
2023-05-19T13:45:11.414Z,19.70
2023-05-19T13:47:39.276Z,19.77
2023-05-19T13:50:07.901Z,20.33
2023-05-19T13:52:35.667Z,19.48
2023-05-19T13:55:05.134Z,20.08
2023-05-19T13:57:33.148Z,25.55
2023-05-19T14:00:04.014Z,20.23
2023-05-19T14:02:32.136Z,20.33
2023-05-19T14:04:59.927Z,19.92
2023-05-19T14:07:28.285Z,21.85
2023-05-19T14:09:56.298Z,18.40
2023-05-19T14:12:35.391Z,19.60
2023-05-19T14:15:09.150Z,19.90
2023-05-19T14:17:37.570Z,24.13
2023-05-19T14:20:07.478Z,19.10
2023-05-19T14:22:35.252Z,19.83
2023-05-19T14:25:03.145Z,21.40
2023-05-19T14:27:32.163Z,20.02
2023-05-19T14:29:59.834Z,19.95
2023-05-19T14:32:30.109Z,18.73
2023-05-19T14:34:58.260Z,19.48
2023-05-19T14:37:27.549Z,21.23
2023-05-19T14:39:55.454Z,19.08
2023-05-19T14:42:23.188Z,19.42
2023-05-19T14:44:52.241Z,19.00
2023-05-19T14:47:19.930Z,19.80
2023-05-19T14:49:47.723Z,20.38
2023-05-19T14:52:15.496Z,19.30
2023-05-19T14:54:43.136Z,19.60
2023-05-19T14:57:10.808Z,19.63
2023-05-19T14:59:38.598Z,19.02
2023-05-19T15:02:08.352Z,18.63
2023-05-19T15:04:36.045Z,20.00
2023-05-19T15:09:34.335Z,19.17
2023-05-19T15:12:02.131Z,19.63
2023-05-19T15:14:31.001Z,17.70
2023-05-19T15:16:59.268Z,19.70
2023-05-19T15:19:28.562Z,18.55
2023-05-19T15:21:56.406Z,20.33
2023-05-19T15:24:24.256Z,20.48
2023-05-19T15:26:52.024Z,20.30
2023-05-19T15:29:19.807Z,19.42
2023-05-19T15:31:47.679Z,19.05
2023-05-19T15:34:15.550Z,23.17
2023-05-19T15:36:44.637Z,19.90
2023-05-19T15:39:12.298Z,19.13
2023-05-19T15:41:40.880Z,17.20
2023-05-19T15:44:08.565Z,20.50
2023-05-19T15:46:36.291Z,20.75
2023-05-19T15:49:04.453Z,19.55
2023-05-19T15:51:32.332Z,18.25
2023-05-19T15:54:01.434Z,19.85
2023-05-19T15:56:29.142Z,20.58
2023-05-19T15:58:56.956Z,19.63
2023-05-19T16:01:25.134Z,18.73
2023-05-19T16:03:53.070Z,19.25
2023-05-19T16:06:20.980Z,19.40
2023-05-19T16:08:48.628Z,20.13
2023-05-19T16:11:18.316Z,18.58
2023-05-19T16:13:45.954Z,19.92
2023-05-19T16:16:13.774Z,20.02
2023-05-19T16:18:41.894Z,18.15
2023-05-19T16:21:09.585Z,21.08
2023-05-19T16:23:37.275Z,19.10
2023-05-19T16:26:05.427Z,19.83
2023-05-19T16:28:34.440Z,22.70
2023-05-19T16:31:02.182Z,18.67
2023-05-19T16:33:30.125Z,20.55
2023-05-19T16:35:59.796Z,19.30
2023-05-19T16:38:27.702Z,21.73
2023-05-19T16:40:55.352Z,19.60
2023-05-19T16:43:22.931Z,21.60
2023-05-19T16:45:51.998Z,19.40
2023-05-19T16:48:19.738Z,19.38
2023-05-19T16:50:48.999Z,20.45
2023-05-19T16:53:16.649Z,19.20
2023-05-19T16:55:44.308Z,20.00
2023-05-19T16:58:12.262Z,19.85
2023-05-19T17:00:39.913Z,20.63
2023-05-19T17:03:08.958Z,19.38
2023-05-19T17:05:38.968Z,18.27
2023-05-19T17:08:06.694Z,20.42
2023-05-19T17:10:34.598Z,20.17
2023-05-19T17:13:02.386Z,19.55
2023-05-19T17:15:30.305Z,20.98
2023-05-19T17:17:58.264Z,18.50
2023-05-19T17:20:27.338Z,19.42
2023-05-19T17:22:54.969Z,20.58
2023-05-19T17:25:22.628Z,19.73
2023-05-19T17:27:51.437Z,19.83
2023-05-19T17:30:19.188Z,19.90
2023-05-19T17:32:47.667Z,19.25
2023-05-19T17:35:15.384Z,19.38
2023-05-19T17:37:44.458Z,20.45
2023-05-19T17:40:13.137Z,19.05
2023-05-19T17:42:40.790Z,19.25
2023-05-19T17:45:12.019Z,20.48
2023-05-19T17:47:39.777Z,19.40
2023-05-19T17:50:08.430Z,19.48
2023-05-19T17:52:36.483Z,21.55
2023-05-19T17:55:06.944Z,21.90
2023-05-19T17:57:34.961Z,19.27
2023-05-19T18:00:03.855Z,20.58
2023-05-19T18:02:32.153Z,18.27
2023-05-19T18:05:00.383Z,19.65
2023-05-19T18:07:28.719Z,18.85
2023-05-19T18:09:57.228Z,18.70
2023-05-19T18:12:26.262Z,20.40
2023-05-19T18:14:53.945Z,19.80
2023-05-19T18:17:21.580Z,21.55
2023-05-19T18:19:49.413Z,18.83
2023-05-19T18:22:17.709Z,19.38
2023-05-19T18:24:45.354Z,19.67
2023-05-19T18:27:13.078Z,21.13
2023-05-19T18:29:42.089Z,22.58
2023-05-19T18:32:09.932Z,20.77
2023-05-19T18:34:37.620Z,21.33
2023-05-19T18:37:05.608Z,20.30
2023-05-19T18:39:33.437Z,22.02
2023-05-19T18:42:01.663Z,20.70
2023-05-19T18:44:29.438Z,19.95
2023-05-19T18:46:58.512Z,20.27
2023-05-19T18:49:26.228Z,20.92
2023-05-19T18:51:53.893Z,24.17
2023-05-19T18:54:21.853Z,20.75
2023-05-19T18:56:49.604Z,20.67
2023-05-19T18:59:17.288Z,20.20
2023-05-19T19:01:45.234Z,21.55
2023-05-19T19:04:16.594Z,20.35
2023-05-19T19:06:44.306Z,19.30
2023-05-19T19:09:12.095Z,19.63
2023-05-19T19:11:39.776Z,18.35
2023-05-19T19:14:07.670Z,19.80
2023-05-19T19:16:35.451Z,19.92
2023-05-19T19:19:03.277Z,19.70
2023-05-19T19:21:32.534Z,21.70
2023-05-19T19:24:01.938Z,19.30
2023-05-19T19:26:29.815Z,20.40
2023-05-19T19:28:57.451Z,21.35
2023-05-19T19:31:25.871Z,21.58
2023-05-19T19:33:53.541Z,20.30
2023-05-19T19:36:21.221Z,19.90
2023-05-19T19:38:50.233Z,19.45
2023-05-19T19:41:19.775Z,19.80
2023-05-19T19:43:47.406Z,20.20
2023-05-19T19:46:16.405Z,21.00
2023-05-19T19:54:09.852Z,21.27
2023-05-19T19:56:37.471Z,18.70
2023-05-19T19:59:05.142Z,20.33
2023-05-19T20:01:33.706Z,19.35
2023-05-19T20:04:01.714Z,19.98
2023-05-19T20:06:29.338Z,19.77
2023-05-19T20:08:56.935Z,18.48
2023-05-19T20:11:26.773Z,18.15
2023-05-19T20:13:54.522Z,19.45
2023-05-19T20:16:22.249Z,19.05
2023-05-19T20:18:50.523Z,19.27
2023-05-19T20:21:18.174Z,20.60
2023-05-19T20:23:46.177Z,20.55
2023-05-19T20:26:13.848Z,19.40
2023-05-19T20:28:42.917Z,18.33
2023-05-19T20:31:10.700Z,19.95
2023-05-19T20:33:38.304Z,21.65
2023-05-19T20:36:06.521Z,21.25
2023-05-19T20:38:34.153Z,19.73
2023-05-19T20:41:03.802Z,21.30
2023-05-19T20:43:32.798Z,20.48
2023-05-19T20:46:03.645Z,21.80
2023-05-19T20:48:31.546Z,22.65
2023-05-19T20:50:59.104Z,22.20
2023-05-19T20:53:26.767Z,21.88
2023-05-19T20:55:54.374Z,22.05
2023-05-19T20:58:22.059Z,23.98
2023-05-19T21:00:56.764Z,21.73
2023-05-19T21:03:27.059Z,22.48
2023-05-19T21:05:55.149Z,22.05
2023-05-19T21:08:22.936Z,22.33
2023-05-19T21:10:50.574Z,20.25
2023-05-19T21:13:18.812Z,22.05
2023-05-19T21:15:46.413Z,21.58
2023-05-19T21:18:14.228Z,19.77
2023-05-19T21:20:43.214Z,21.98
2023-05-19T21:23:10.865Z,22.10
2023-05-19T21:25:38.441Z,20.90
2023-05-19T21:28:06.396Z,19.95
2023-05-19T21:30:34.228Z,21.48
2023-05-19T21:33:02.071Z,20.52
2023-05-19T21:35:29.785Z,20.77
2023-05-19T21:38:03.897Z,21.05
2023-05-19T21:40:36.705Z,20.35
2023-05-19T21:43:05.822Z,20.42
2023-05-19T21:45:33.547Z,20.67
2023-05-19T21:48:01.218Z,21.48
2023-05-19T21:50:28.860Z,20.90
2023-05-19T21:52:57.795Z,20.63
2023-05-19T21:55:25.456Z,19.95
2023-05-19T21:57:53.061Z,20.52
2023-05-19T22:00:20.721Z,20.83
2023-05-19T22:02:48.450Z,20.73
2023-05-19T22:05:16.161Z,21.67
2023-05-19T22:07:43.841Z,21.67
2023-05-19T22:10:13.203Z,21.63
2023-05-19T22:12:41.033Z,21.48
2023-05-19T22:15:09.913Z,22.00
2023-05-19T22:17:37.553Z,21.45
2023-05-19T22:20:06.122Z,23.17
2023-05-19T22:22:33.771Z,22.25
2023-05-19T22:25:01.446Z,23.77
2023-05-19T22:27:30.382Z,21.63
2023-05-19T22:29:59.654Z,21.60
2023-05-19T22:32:27.343Z,23.25
2023-05-19T22:34:55.030Z,22.60
2023-05-19T22:37:23.747Z,21.23
2023-05-19T22:39:51.630Z,22.20
2023-05-19T22:42:19.560Z,22.90
2023-05-19T22:44:48.553Z,21.50
2023-05-19T22:47:16.339Z,20.67
2023-05-19T22:49:44.285Z,22.27
2023-05-19T22:52:12.291Z,21.73
2023-05-19T22:54:39.962Z,28.10
2023-05-19T22:57:07.560Z,21.77
2023-05-19T22:59:35.506Z,21.45
2023-05-19T23:02:04.646Z,21.00
2023-05-19T23:04:32.972Z,23.00
2023-05-19T23:07:00.827Z,21.58
2023-05-19T23:09:28.483Z,22.05
2023-05-19T23:11:56.104Z,21.15
2023-05-19T23:14:25.808Z,23.10
2023-05-19T23:16:53.500Z,21.65
2023-05-19T23:19:22.708Z,22.17
2023-05-19T23:21:50.459Z,21.50
2023-05-19T23:24:18.094Z,21.30
2023-05-19T23:26:45.913Z,22.17
2023-05-19T23:29:14.749Z,21.30
2023-05-19T23:31:42.894Z,20.92
2023-05-19T23:34:11.282Z,21.90
2023-05-19T23:36:40.277Z,20.27
2023-05-19T23:39:07.927Z,22.23
2023-05-19T23:41:36.652Z,21.90
2023-05-19T23:44:04.420Z,22.05
2023-05-19T23:46:32.146Z,20.45
2023-05-19T23:48:59.843Z,22.42
2023-05-19T23:51:27.605Z,21.05
2023-05-19T23:53:56.578Z,21.27
2023-05-19T23:56:24.164Z,21.70
2023-05-19T23:58:51.850Z,21.33
